Canadian Empress — VX6095 — position and weather

sailwx.info

Track history (hours):
 
Tides and Currents Weather Stations Pressure Air Temp Water Temp Dewpoint Dewpoint Depression Visibility Wind Speed Wind Dir Waves Ship Positions

Canadian Empress

Last reported at 2017-Jun-15 18:56 UTC. Time now 2017-Jun-25 05:27 UTC.
Position N 45°18' W 073°56'.
Warning: this ship's position is 9 days out of date.

Length 32 m.

Type: Passenger vessel. MMSI: 314954012.

Date/timePositionNaut miles runAvg speedWind from/ knotsBaromVisibWave heightAir tempDewpointWater temp
2017-Jun-15 18:56N 45°18' W 073°56'1 0.9
2017-Jun-15 17:58N 45°19' W 073°55'3 6.2
2017-Jun-15 17:29N 45°21' W 073°52'4 8.8
2017-Jun-15 17:00N 45°24' W 073°47'4 7.9
2017-Jun-15 16:31N 45°25' W 073°42'3 5.7
2017-Jun-15 16:00N 45°24' W 073°38'  
2017-Jun-10 15:24N 45°25' W 073°40'2 5.6
2017-Jun-10 14:58N 45°25' W 073°43'8 8.7
2017-Jun-10 14:00N 45°20' W 073°53'2 3.8
2017-Jun-10 13:29N 45°19' W 073°55'1 2.4
2017-Jun-10 13:00N 45°18' W 073°56'5 9.4
2017-Jun-10 12:28N 45°14' W 074°00'  
Track history (hours):
 
Tides and Currents Weather Stations Pressure Air Temp Water Temp Dewpoint Dewpoint Depression Visibility Wind Speed Wind Dir Waves Ship Positions

Canadian Empress

Last reported at 2017-Jun-15 18:56 UTC. Time now 2017-Jun-25 05:27 UTC.
Position N 45°18' W 073°56'.
Warning: this ship's position is 9 days out of date.

Length 32 m.

Type: Passenger vessel. MMSI: 314954012.

Date/timePositionNaut miles runAvg speedWind from/ knotsBaromVisibWave heightAir tempDewpointWater temp
2017-Jun-15 18:56N 45°18' W 073°56'1 0.9
2017-Jun-15 17:58N 45°19' W 073°55'3 6.2
2017-Jun-15 17:29N 45°21' W 073°52'4 8.8
2017-Jun-15 17:00N 45°24' W 073°47'4 7.9
2017-Jun-15 16:31N 45°25' W 073°42'3 5.7
2017-Jun-15 16:00N 45°24' W 073°38'  
2017-Jun-10 15:24N 45°25' W 073°40'2 5.6
2017-Jun-10 14:58N 45°25' W 073°43'8 8.7
2017-Jun-10 14:00N 45°20' W 073°53'2 3.8
2017-Jun-10 13:29N 45°19' W 073°55'1 2.4
2017-Jun-10 13:00N 45°18' W 073°56'5 9.4
2017-Jun-10 12:28N 45°14' W 074°00'  

Dump ship's entire track history